Time;durP1;ratioP1;P1;durP2;ratioP2;P2;SDS_P1;SDS_P2;PMS_P1;PMS_P2;Temp;Humidity;BMP_temperature;BMP_pressure;BME280_temperature;BME280_humidity;BME280_pressure;Samples;Min_cycle;Max_cycle;Signal;HPM_P1;HPM_P2
2024/02/26 00:03:09;;;;;;;163.47;62.23;;;;;;;4.33;100.00;99719.87;5114219;54;1140985;-80
2024/02/26 00:08:15;;;;;;;178.67;68.43;;;;;;;4.16;100.00;99713.11;5103003;56;1140951;-80
2024/02/26 00:13:22;;;;;;;133.50;60.12;;;;;;;3.97;100.00;99723.09;5102928;56;1141044;-80
2024/02/26 00:18:27;;;;;;;102.92;48.68;;;;;;;3.84;100.00;99715.15;5123383;56;1140542;-81
2024/02/26 00:23:33;;;;;;;100.00;49.20;;;;;;;3.84;100.00;99722.16;5102500;56;1140604;-83
2024/02/26 00:28:39;;;;;;;101.87;50.47;;;;;;;3.80;100.00;99708.45;5103401;56;1140634;-79
2024/02/26 00:33:44;;;;;;;141.87;61.77;;;;;;;3.71;100.00;99722.55;5134149;55;1140848;-79
2024/02/26 00:38:52;;;;;;;163.47;70.10;;;;;;;3.28;100.00;99730.41;5183139;55;1141148;-79
2024/02/26 00:43:58;;;;;;;166.10;71.77;;;;;;;3.12;100.00;99719.19;5188494;55;1140785;-81
2024/02/26 00:49:03;;;;;;;157.97;67.03;;;;;;;3.10;100.00;99713.22;5160441;55;1140572;-80
2024/02/26 00:54:09;;;;;;;143.37;64.13;;;;;;;3.09;100.00;99716.76;5034791;55;1140723;-79
2024/02/26 00:59:14;;;;;;;169.70;63.20;;;;;;;3.26;100.00;99717.89;5070210;56;1140794;-80
2024/02/26 01:04:20;;;;;;;178.60;64.03;;;;;;;3.29;100.00;99716.88;5074082;56;1140936;-81
2024/02/26 01:09:25;;;;;;;246.23;65.03;;;;;;;3.40;100.00;99715.75;5077452;57;1143004;-81
2024/02/26 01:14:31;;;;;;;276.73;67.08;;;;;;;3.57;100.00;99712.11;5049000;57;1140762;-80
2024/02/26 01:19:37;;;;;;;292.87;70.13;;;;;;;3.66;100.00;99711.56;5057488;57;1140838;-79
2024/02/26 01:24:42;;;;;;;251.87;52.83;;;;;;;3.71;100.00;99710.31;5144211;56;1140780;-82
2024/02/26 01:29:48;;;;;;;236.37;42.07;;;;;;;3.72;100.00;99713.30;5135051;55;1140466;-80
2024/02/26 01:34:53;;;;;;;207.63;38.70;;;;;;;3.73;100.00;99712.37;5035470;56;1140722;-82
2024/02/26 01:39:59;;;;;;;201.10;39.33;;;;;;;3.75;100.00;99709.20;5055215;57;1141076;-79
2024/02/26 01:45:07;;;;;;;255.07;43.13;;;;;;;3.74;100.00;99707.98;5054121;56;1140711;-81
2024/02/26 01:50:12;;;;;;;231.23;43.37;;;;;;;3.75;100.00;99711.81;5161137;56;1177617;-81
2024/02/26 01:55:20;;;;;;;245.12;42.58;;;;;;;3.78;100.00;99708.17;5031627;57;1267687;-81
2024/02/26 02:00:27;;;;;;;155.50;32.77;;;;;;;3.81;100.00;99700.98;5186723;55;1141550;-80
2024/02/26 02:05:34;;;;;;;150.20;31.57;;;;;;;3.83;100.00;99703.47;5227833;55;1243439;-81
2024/02/26 02:10:42;;;;;;;139.50;34.67;;;;;;;3.83;100.00;99713.94;5227486;55;1199481;-80
2024/02/26 02:15:47;;;;;;;197.17;35.53;;;;;;;3.74;100.00;99714.05;5250543;55;1141306;-82
2024/02/26 02:20:56;;;;;;;126.10;32.60;;;;;;;3.69;100.00;99716.57;5228084;55;1246689;-80
2024/02/26 02:26:01;;;;;;;99.53;27.40;;;;;;;3.75;100.00;99717.05;5215474;55;1246184;-79
2024/02/26 02:31:07;;;;;;;110.67;28.90;;;;;;;3.71;100.00;99710.78;5161166;55;1245600;-81
2024/02/26 02:36:13;;;;;;;107.77;26.70;;;;;;;3.67;100.00;99712.73;5136318;56;1250517;-82
2024/02/26 02:41:19;;;;;;;96.32;25.48;;;;;;;3.61;100.00;99716.22;5137869;56;1255098;-82
2024/02/26 02:46:24;;;;;;;134.00;28.10;;;;;;;3.49;100.00;99717.83;5161069;56;1240672;-78
2024/02/26 02:51:30;;;;;;;75.55;25.52;;;;;;;3.34;100.00;99714.38;5141236;56;1250289;-82
2024/02/26 02:56:36;;;;;;;65.55;24.75;;;;;;;3.27;100.00;99700.45;5141651;56;1242514;-79
2024/02/26 03:01:41;;;;;;;113.57;27.90;;;;;;;3.25;100.00;99702.31;5209553;55;1138923;-82
2024/02/26 03:06:47;;;;;;;127.27;28.57;;;;;;;3.20;100.00;99702.61;5230858;55;1140711;-80
2024/02/26 03:11:52;;;;;;;90.07;27.30;;;;;;;3.11;100.00;99694.84;5231133;55;1140691;-80
2024/02/26 03:16:58;;;;;;;54.07;24.47;;;;;;;3.03;100.00;99693.16;5249776;55;1245468;-82
2024/02/26 03:22:04;;;;;;;48.63;24.03;;;;;;;2.98;100.00;99695.67;5223872;55;1138537;-80
2024/02/26 03:27:10;;;;;;;69.50;25.00;;;;;;;2.92;100.00;99694.25;5126250;55;1138830;-80
2024/02/26 03:32:16;;;;;;;94.93;26.83;;;;;;;2.87;100.00;99683.25;5134319;56;1138779;-81
2024/02/26 03:37:21;;;;;;;103.70;26.20;;;;;;;2.78;100.00;99674.64;5134049;56;1138539;-79
2024/02/26 03:42:27;;;;;;;78.80;25.35;;;;;;;2.76;100.00;99677.80;5112001;56;1222820;-79
2024/02/26 03:47:32;;;;;;;74.73;28.60;;;;;;;2.81;100.00;99681.84;5113657;56;1175955;-79
2024/02/26 03:52:38;;;;;;;74.73;26.57;;;;;;;2.86;100.00;99686.80;5133894;56;1139356;-83
2024/02/26 03:57:43;;;;;;;101.43;25.57;;;;;;;2.89;100.00;99693.61;5114084;56;1138406;-79
2024/02/26 04:02:49;;;;;;;74.87;24.07;;;;;;;2.88;100.00;99700.61;5134906;55;1140608;-79
2024/02/26 04:07:55;;;;;;;72.07;25.50;;;;;;;2.79;100.00;99703.73;5134078;56;1138607;-81
2024/02/26 04:13:00;;;;;;;82.70;28.50;;;;;;;2.79;100.00;99699.36;5113818;56;1138825;-82
2024/02/26 04:18:06;;;;;;;122.67;33.10;;;;;;;2.76;100.00;99694.31;5113419;55;1138945;-81
2024/02/26 04:23:11;;;;;;;100.77;32.63;;;;;;;2.76;100.00;99698.69;5133666;55;1140958;-79
2024/02/26 04:28:17;;;;;;;101.50;34.33;;;;;;;2.75;100.00;99697.04;5097944;56;1140820;-80
2024/02/26 04:33:23;;;;;;;104.23;34.45;;;;;;;2.74;100.00;99706.64;5072317;56;1140914;-79
2024/02/26 04:38:28;;;;;;;137.05;50.48;;;;;;;2.71;100.00;99715.95;5103607;56;1140486;-80
2024/02/26 04:43:34;;;;;;;135.70;42.90;;;;;;;2.73;100.00;99713.26;5057186;56;1140352;-80
2024/02/26 04:48:41;;;;;;;111.27;35.83;;;;;;;2.75;100.00;99712.21;5054095;56;1141073;-79
2024/02/26 04:53:47;;;;;;;99.57;32.33;;;;;;;2.75;100.00;99710.91;5065288;57;1140663;-80
2024/02/26 04:58:52;;;;;;;120.37;29.43;;;;;;;2.65;100.00;99719.37;5079653;56;1138483;-76
2024/02/26 05:03:58;;;;;;;108.90;30.17;;;;;;;2.54;100.00;99720.46;5132183;56;1140988;-75
2024/02/26 05:09:03;;;;;;;92.73;26.23;;;;;;;2.45;100.00;99721.34;5135964;56;1140470;-75
2024/02/26 05:14:10;;;;;;;108.30;26.65;;;;;;;2.43;100.00;99723.23;5133318;56;1138732;-77
2024/02/26 05:19:15;;;;;;;151.73;30.57;;;;;;;2.33;100.00;99723.81;5038552;56;1140581;-75
2024/02/26 05:24:22;;;;;;;145.63;30.10;;;;;;;2.31;100.00;99730.88;5008671;56;1140597;-76
2024/02/26 05:29:27;;;;;;;59.10;26.37;;;;;;;2.27;100.00;99734.62;5050911;57;1140815;-78
2024/02/26 05:34:33;;;;;;;67.17;27.17;;;;;;;2.20;100.00;99730.19;4966337;58;1138614;-75
2024/02/26 05:39:39;;;;;;;54.43;25.67;;;;;;;2.17;100.00;99738.19;4967260;57;1139035;-73
2024/02/26 05:44:44;;;;;;;60.23;27.60;;;;;;;2.18;100.00;99732.50;4986268;56;1138898;-76
2024/02/26 05:49:50;;;;;;;69.60;31.30;;;;;;;2.20;100.00;99740.63;4966760;57;1138657;-75
2024/02/26 05:54:56;;;;;;;75.00;32.07;;;;;;;2.04;100.00;99756.28;4966792;58;1139059;-76
2024/02/26 06:00:03;;;;;;;94.40;43.07;;;;;;;2.04;100.00;99756.28;4998604;56;1138867;-77
2024/02/26 06:05:10;;;;;;;64.63;34.07;;;;;;;2.05;100.00;99753.21;5013613;57;1138871;-77
2024/02/26 06:10:16;;;;;;;162.63;68.00;;;;;;;2.08;100.00;99763.48;5020295;57;1138939;-75
2024/02/26 06:15:21;;;;;;;127.65;57.50;;;;;;;1.98;100.00;99772.28;5030026;56;1141069;-78
2024/02/26 06:20:27;;;;;;;77.95;40.73;;;;;;;1.97;100.00;99773.66;4983024;57;1140516;-77
2024/02/26 06:25:33;;;;;;;54.27;29.33;;;;;;;2.08;100.00;99773.91;4910419;57;1138918;-75
2024/02/26 06:30:38;;;;;;;55.53;30.27;;;;;;;2.06;100.00;99773.16;5035432;56;1138730;-76
2024/02/26 06:35:44;;;;;;;59.83;30.33;;;;;;;1.99;100.00;99771.78;5092812;56;1138803;-73
2024/02/26 06:40:49;;;;;;;56.73;30.53;;;;;;;2.04;100.00;99776.30;5078705;57;1139108;-75
2024/02/26 06:45:55;;;;;;;59.03;30.70;;;;;;;2.13;100.00;99776.28;5076553;56;1139098;-75
2024/02/26 06:51:00;;;;;;;53.90;28.33;;;;;;;2.41;100.00;99769.91;5096403;56;1138709;-79
2024/02/26 06:56:07;;;;;;;49.00;27.37;;;;;;;2.59;100.00;99771.48;5078038;56;1140752;-76
2024/02/26 07:01:14;;;;;;;59.83;30.80;;;;;;;2.79;100.00;99771.17;5091891;55;1138747;-76
2024/02/26 07:06:19;;;;;;;57.95;31.10;;;;;;;2.95;100.00;99778.95;5105990;55;1138793;-73
2024/02/26 07:11:25;;;;;;;56.63;29.72;;;;;;;3.07;100.00;99778.70;4956604;56;1138985;-79
2024/02/26 07:16:31;;;;;;;62.48;31.62;;;;;;;3.23;100.00;99772.95;4933777;58;1138910;-76
2024/02/26 07:21:36;;;;;;;59.47;30.67;;;;;;;3.45;100.00;99782.51;4934403;58;1138680;-73
2024/02/26 07:26:42;;;;;;;62.10;29.70;;;;;;;3.75;100.00;99779.81;4988249;57;1138905;-77
2024/02/26 07:31:48;;;;;;;61.08;30.30;;;;;;;4.10;100.00;99781.55;4961538;58;1140793;-78
2024/02/26 07:36:53;;;;;;;54.27;31.10;;;;;;;4.38;100.00;99783.73;4973721;58;1140580;-75
2024/02/26 07:41:59;;;;;;;72.10;38.35;;;;;;;4.56;100.00;99787.33;4979463;58;1139050;-79
2024/02/26 07:47:05;;;;;;;58.10;30.77;;;;;;;4.69;100.00;99785.22;4963540;58;1138666;-77
2024/02/26 07:52:10;;;;;;;60.05;28.20;;;;;;;4.80;100.00;99785.34;4963184;58;1139044;-79
2024/02/26 07:57:17;;;;;;;51.30;24.93;;;;;;;4.94;100.00;99786.59;4973111;57;1140933;-78
2024/02/26 08:02:23;;;;;;;54.70;31.53;;;;;;;5.12;100.00;99788.46;5049990;55;1140722;-76
2024/02/26 08:07:28;;;;;;;58.38;31.10;;;;;;;5.35;100.00;99801.35;5124806;55;1140942;-76
2024/02/26 08:12:35;;;;;;;45.67;25.80;;;;;;;5.62;100.00;99802.09;5199195;55;1138960;-76
2024/02/26 08:17:40;;;;;;;51.20;28.00;;;;;;;5.90;100.00;99794.02;5219733;55;1139000;-75
2024/02/26 08:22:46;;;;;;;45.63;24.43;;;;;;;6.09;100.00;99796.20;5198955;55;1140800;-77
2024/02/26 08:27:52;;;;;;;52.47;26.70;;;;;;;6.43;100.00;99807.73;5199014;55;1140890;-78
2024/02/26 08:32:57;;;;;;;49.63;25.50;;;;;;;6.76;100.00;99806.25;5219059;55;1140865;-73
2024/02/26 08:38:03;;;;;;;43.37;23.07;;;;;;;6.99;100.00;99809.36;5265724;54;1140919;-76
2024/02/26 08:43:09;;;;;;;46.90;24.00;;;;;;;7.14;100.00;99814.79;5288993;54;1140642;-74
2024/02/26 08:48:15;;;;;;;42.33;25.37;;;;;;;7.39;100.00;99805.41;5292954;54;1141194;-79
2024/02/26 08:53:22;;;;;;;38.70;21.83;;;;;;;7.68;100.00;99803.18;5235215;54;1141054;-76
2024/02/26 08:58:29;;;;;;;40.33;20.27;;;;;;;7.86;100.00;99803.55;5149944;55;1141103;-77
2024/02/26 09:03:35;;;;;;;38.53;20.50;;;;;;;8.12;100.00;99802.34;5208641;54;1140881;-78
2024/02/26 09:08:41;;;;;;;40.40;22.63;;;;;;;8.37;100.00;99805.23;5226148;55;1140753;-75
2024/02/26 09:13:46;;;;;;;38.80;20.93;;;;;;;8.59;100.00;99804.34;5199242;55;1140857;-76
2024/02/26 09:18:52;;;;;;;45.50;22.37;;;;;;;8.83;100.00;99804.64;5199173;55;1140642;-75
2024/02/26 09:23:59;;;;;;;40.37;21.27;;;;;;;8.93;100.00;99805.55;5221563;54;1140711;-76
2024/02/26 09:29:05;;;;;;;41.02;22.17;;;;;;;9.10;100.00;99802.36;5229447;54;1140702;-77
2024/02/26 09:34:11;;;;;;;43.57;20.13;;;;;;;9.23;100.00;99812.25;5215631;54;1140654;-81
2024/02/26 09:39:21;;;;;;;33.17;18.20;;;;;;;9.39;100.00;99821.88;5211556;54;1140830;-80
2024/02/26 09:44:26;;;;;;;36.37;17.37;;;;;;;9.58;100.00;99813.26;5227960;54;1140777;-78
2024/02/26 09:49:31;;;;;;;34.43;16.90;;;;;;;9.58;100.00;99800.06;5198910;55;1140901;-74
2024/02/26 09:54:37;;;;;;;39.05;18.15;;;;;;;9.72;100.00;99811.60;5196106;55;1140725;-80
2024/02/26 09:59:44;;;;;;;33.00;16.90;;;;;;;9.89;100.00;99811.48;5220924;54;1140801;-78
2024/02/26 10:04:51;;;;;;;33.40;17.90;;;;;;;10.06;100.00;99804.27;5178837;55;1140628;-78
2024/02/26 10:09:57;;;;;;;36.73;20.07;;;;;;;10.17;100.00;99802.83;5189675;55;1143074;-77
2024/02/26 10:15:03;;;;;;;40.07;21.73;;;;;;;10.18;100.00;99804.55;5164698;55;1142872;-81
2024/02/26 10:20:27;;;;;;;50.23;30.53;;;;;;;10.25;100.00;99806.62;5133205;55;1142826;-75
2024/02/26 10:25:27;;;;;;;36.40;19.67;;;;;;;10.32;100.00;99813.06;5139141;55;1142835;-78
2024/02/26 10:30:33;;;;;;;36.30;19.25;;;;;;;10.42;100.00;99812.11;5147194;55;1143025;-74
2024/02/26 10:35:40;;;;;;;38.20;18.10;;;;;;;10.53;100.00;99800.12;5135732;55;1142993;-76
2024/02/26 10:40:46;;;;;;;38.33;22.33;;;;;;;10.66;100.00;99790.61;5138765;55;1143012;-81
2024/02/26 10:45:51;;;;;;;41.53;27.37;;;;;;;10.78;100.00;99799.23;5177203;54;1142895;-79
2024/02/26 10:50:58;;;;;;;43.27;25.53;;;;;;;10.85;100.00;99791.08;5195866;54;1142837;-76
2024/02/26 10:56:06;;;;;;;25.67;15.17;;;;;;;10.89;100.00;99789.84;5154729;55;1142837;-77
2024/02/26 11:01:13;;;;;;;27.13;16.90;;;;;;;10.97;100.00;99796.61;5147645;55;1142853;-78
2024/02/26 11:06:20;;;;;;;26.07;14.40;;;;;;;11.04;100.00;99804.81;5162679;55;1143219;-76
2024/02/26 11:11:28;;;;;;;32.10;18.23;;;;;;;11.06;100.00;99793.61;5179320;55;1143020;-78
2024/02/26 11:16:36;;;;;;;71.13;38.40;;;;;;;11.14;100.00;99792.44;5148760;55;1142841;-80
2024/02/26 11:21:43;;;;;;;33.77;16.60;;;;;;;11.25;100.00;99790.95;5170471;54;1142895;-76
2024/02/26 11:26:58;;;;;;;38.37;23.80;;;;;;;11.34;100.00;99796.72;5183025;54;1142797;-77
2024/02/26 11:32:02;;;;;;;30.97;18.60;;;;;;;11.38;100.00;99791.49;5144918;55;1142973;-76
2024/02/26 11:37:18;;;;;;;33.37;20.80;;;;;;;11.38;100.00;99779.58;5109565;54;1142982;-75
2024/02/26 11:42:28;;;;;;;33.15;16.65;;;;;;;11.41;100.00;99785.92;5170603;55;1152411;-76
2024/02/26 11:47:37;;;;;;;30.55;17.70;;;;;;;11.50;100.00;99776.27;5155519;55;1142996;-74
2024/02/26 11:52:42;;;;;;;33.13;19.17;;;;;;;11.66;100.00;99777.83;5143099;55;1142771;-76
2024/02/26 11:57:48;;;;;;;25.00;15.30;;;;;;;11.79;100.00;99778.38;5111248;55;1142982;-78
2024/02/26 12:03:08;;;;;;;25.40;14.27;;;;;;;11.96;100.00;99774.97;5105858;55;1143173;-80
2024/02/26 12:08:15;;;;;;;32.70;15.53;;;;;;;12.09;100.00;99770.66;5106737;55;1142589;-76
2024/02/26 12:13:20;;;;;;;28.73;15.70;;;;;;;12.26;100.00;99769.88;5137319;55;1142464;-80
2024/02/26 12:18:26;;;;;;;26.02;16.42;;;;;;;12.32;100.00;99771.94;5113307;55;1142910;-80
2024/02/26 12:23:32;;;;;;;20.35;13.18;;;;;;;12.33;100.00;99776.75;5134313;55;1142844;-75
2024/02/26 12:28:37;;;;;;;21.97;12.57;;;;;;;12.27;100.00;99774.68;5113457;55;1142890;-78
2024/02/26 12:33:44;;;;;;;70.53;20.70;;;;;;;12.19;100.00;99779.90;5113533;54;1142950;-80
2024/02/26 12:38:51;;;;;;;25.20;14.77;;;;;;;12.23;100.00;99778.11;5130446;55;1143028;-74
2024/02/26 12:43:57;;;;;;;20.60;12.23;;;;;;;12.39;100.00;99778.80;5129965;54;1142725;-74
2024/02/26 12:49:02;;;;;;;23.17;13.33;;;;;;;12.55;100.00;99773.67;5172159;55;1142768;-79
2024/02/26 12:54:10;;;;;;;18.03;8.13;;;;;;;12.75;100.00;99776.20;5241577;54;1142600;-76
2024/02/26 12:59:16;;;;;;;26.93;13.30;;;;;;;12.83;100.00;99780.27;5197620;54;1140864;-77
2024/02/26 13:04:21;;;;;;;19.50;8.80;;;;;;;12.87;100.00;99779.80;5160728;55;1142704;-78
2024/02/26 13:09:28;;;;;;;17.80;8.07;;;;;;;12.85;100.00;99776.45;5128946;55;1140722;-74
2024/02/26 13:14:35;;;;;;;12.63;7.72;;;;;;;12.83;100.00;99775.77;5154349;55;1140594;-79
2024/02/26 13:19:51;;;;;;;17.92;7.80;;;;;;;12.91;100.00;99779.00;5114739;55;1140707;-79
2024/02/26 13:24:59;;;;;;;12.63;8.70;;;;;;;13.01;100.00;99785.06;5119677;55;1140743;-78
2024/02/26 13:30:11;;;;;;;15.03;8.30;;;;;;;12.97;100.00;99793.01;5181181;55;1141268;-77
2024/02/26 13:35:18;;;;;;;15.00;8.37;;;;;;;12.91;100.00;99789.13;5199207;55;1140902;-79
2024/02/26 13:40:23;;;;;;;13.40;6.40;;;;;;;12.83;100.00;99783.73;5195134;55;1141184;-78
2024/02/26 13:45:29;;;;;;;23.50;12.73;;;;;;;12.77;100.00;99790.15;5282853;55;1140848;-76
2024/02/26 13:50:36;;;;;;;11.93;7.13;;;;;;;12.68;100.00;99790.05;5213072;55;1142771;-78
2024/02/26 13:55:45;;;;;;;30.97;18.25;;;;;;;12.54;100.00;99793.70;5231478;55;1140693;-78
2024/02/26 14:00:51;;;;;;;68.97;35.07;;;;;;;12.45;100.00;99795.45;5199285;55;1142899;-77
2024/02/26 14:05:58;;;;;;;104.13;38.90;;;;;;;12.41;100.00;99797.21;5057343;56;1143010;-78
2024/02/26 14:11:04;;;;;;;80.93;34.17;;;;;;;12.35;100.00;99802.63;5125536;55;1144852;-77
2024/02/26 14:16:10;;;;;;;55.70;22.83;;;;;;;12.30;100.00;99808.86;5153418;56;1142960;-76
2024/02/26 14:21:16;;;;;;;51.93;24.60;;;;;;;12.25;100.00;99802.66;5164252;56;1142916;-75
2024/02/26 14:26:22;;;;;;;46.10;24.50;;;;;;;12.24;100.00;99801.48;5132976;56;1142738;-83
2024/02/26 14:31:28;;;;;;;52.23;34.90;;;;;;;12.22;100.00;99806.93;5132927;56;1143188;-82
2024/02/26 14:36:33;;;;;;;22.43;12.67;;;;;;;12.22;100.00;99810.10;5153731;55;1142730;-81
2024/02/26 14:41:40;;;;;;;20.37;8.87;;;;;;;12.19;100.00;99809.06;5121440;55;1142657;-77
2024/02/26 14:46:45;;;;;;;27.48;10.30;;;;;;;12.17;100.00;99811.02;5168258;55;1140787;-77
2024/02/26 14:51:51;;;;;;;23.33;11.73;;;;;;;12.15;100.00;99812.98;5219280;55;1142575;-79
2024/02/26 14:56:57;;;;;;;23.47;11.93;;;;;;;12.10;100.00;99812.08;5198648;55;1143159;-80
2024/02/26 15:02:03;;;;;;;20.97;12.67;;;;;;;12.06;100.00;99815.19;5134385;55;1142910;-81
2024/02/26 15:07:08;;;;;;;21.57;15.03;;;;;;;12.03;100.00;99817.64;5195074;55;1142748;-76
2024/02/26 15:12:15;;;;;;;19.77;12.77;;;;;;;12.03;100.00;99819.45;5198344;55;1142817;-79
2024/02/26 15:17:20;;;;;;;21.87;12.03;;;;;;;11.98;100.00;99820.71;5198615;55;1142930;-80
2024/02/26 15:22:26;;;;;;;24.97;12.27;;;;;;;11.93;100.00;99826.09;5198246;55;1142962;-79
2024/02/26 15:27:32;;;;;;;23.77;11.83;;;;;;;11.89;100.00;99832.20;5218423;55;1152068;-78
2024/02/26 15:32:37;;;;;;;23.47;12.27;;;;;;;11.85;100.00;99831.29;5198416;55;1142855;-79
2024/02/26 15:37:43;;;;;;;30.65;14.23;;;;;;;11.84;100.00;99834.91;5191729;54;1143129;-81
2024/02/26 15:42:49;;;;;;;42.33;19.33;;;;;;;11.83;100.00;99843.84;5147405;55;1142724;-80
2024/02/26 15:47:54;;;;;;;55.57;21.90;;;;;;;11.80;100.00;99844.12;5198288;55;1143059;-76
2024/02/26 15:53:01;;;;;;;32.20;15.90;;;;;;;11.77;100.00;99852.34;5160543;55;1142706;-78
2024/02/26 15:58:10;;;;;;;34.10;18.20;;;;;;;11.70;100.00;99852.56;5170490;55;1143010;-77
2024/02/26 16:03:16;;;;;;;37.57;18.33;;;;;;;11.61;100.00;99849.77;5102297;55;1142936;-78
2024/02/26 16:08:24;;;;;;;39.50;18.50;;;;;;;11.57;100.00;99853.70;5057149;56;1142779;-79
2024/02/26 16:13:30;;;;;;;48.25;19.48;;;;;;;11.54;100.00;99857.11;5070870;56;1142869;-76
2024/02/26 16:18:37;;;;;;;38.13;20.07;;;;;;;11.48;100.00;99855.02;5143056;56;1142689;-78
2024/02/26 16:23:43;;;;;;;42.05;19.32;;;;;;;11.43;100.00;99864.73;5123237;56;1143075;-79
2024/02/26 16:28:48;;;;;;;44.08;18.67;;;;;;;11.42;100.00;99869.67;5123298;56;1142900;-75
2024/02/26 16:33:54;;;;;;;38.37;19.13;;;;;;;11.40;100.00;99872.11;5196881;55;1142571;-77
2024/02/26 16:39:00;;;;;;;36.00;17.07;;;;;;;11.39;100.00;99877.89;5134154;55;1143349;-77
2024/02/26 16:44:05;;;;;;;24.77;15.03;;;;;;;11.34;100.00;99880.11;5133116;55;1142816;-79
2024/02/26 16:49:11;;;;;;;27.60;14.63;;;;;;;11.26;100.00;99883.47;5153742;55;1142642;-76
2024/02/26 16:54:17;;;;;;;27.50;15.57;;;;;;;11.16;100.00;99885.25;5094411;55;1142756;-77
2024/02/26 16:59:27;;;;;;;30.27;16.42;;;;;;;11.08;100.00;99906.29;5089544;54;1142940;-77
2024/02/26 17:04:30;;;;;;;27.43;17.43;;;;;;;11.03;100.00;99906.34;5171185;54;1142960;-76
2024/02/26 17:09:36;;;;;;;28.83;15.87;;;;;;;10.96;100.00;99910.52;5126187;55;1142939;-80
2024/02/26 17:14:45;;;;;;;32.40;16.93;;;;;;;10.90;100.00;99919.34;5119190;55;1142839;-78
2024/02/26 17:19:49;;;;;;;38.87;17.77;;;;;;;10.86;100.00;99913.12;5103228;55;1143281;-76
2024/02/26 17:24:54;;;;;;;38.47;20.67;;;;;;;10.83;100.00;99912.94;5096071;55;1142744;-80
2024/02/26 17:30:00;;;;;;;38.87;20.97;;;;;;;10.79;100.00;99919.46;5112738;56;1142966;-81
2024/02/26 17:35:06;;;;;;;33.80;19.30;;;;;;;10.78;100.00;99927.53;5188668;55;1142906;-80
2024/02/26 17:40:13;;;;;;;33.03;18.37;;;;;;;10.75;100.00;99922.50;5143852;55;1142732;-80
2024/02/26 17:45:21;;;;;;;42.33;20.60;;;;;;;10.70;100.00;99924.22;5064022;56;1142942;-81
2024/02/26 17:50:26;;;;;;;38.73;20.70;;;;;;;10.75;100.00;99930.44;5103222;56;1142837;-80
2024/02/26 17:55:32;;;;;;;55.83;26.20;;;;;;;10.80;100.00;99933.52;5114132;55;1142857;-80
2024/02/26 18:00:37;;;;;;;47.03;25.20;;;;;;;10.83;100.00;99930.13;5162239;54;1143033;-81
2024/02/26 18:05:43;;;;;;;56.50;28.07;;;;;;;10.80;100.00;99931.72;5137567;55;1142805;-79
2024/02/26 18:10:49;;;;;;;49.58;25.90;;;;;;;10.74;100.00;99936.20;5129601;55;1142908;-80
2024/02/26 18:15:57;;;;;;;47.60;24.80;;;;;;;10.68;100.00;99935.44;5071630;55;1142722;-79
2024/02/26 18:21:02;;;;;;;42.37;23.20;;;;;;;10.66;100.00;99936.54;5142774;56;1142926;-80
2024/02/26 18:26:07;;;;;;;42.77;22.77;;;;;;;10.66;100.00;99943.98;5174076;54;1142968;-80
2024/02/26 18:31:13;;;;;;;45.57;24.83;;;;;;;10.61;100.00;99940.90;5087416;56;1142856;-81
2024/02/26 18:36:24;;;;;;;45.03;25.63;;;;;;;10.56;100.00;99943.94;5117461;54;1142958;-78
2024/02/26 18:41:26;;;;;;;38.67;21.77;;;;;;;10.51;100.00;99949.28;5050836;56;1143162;-79
2024/02/26 18:46:33;;;;;;;37.90;19.00;;;;;;;10.45;100.00;99957.25;5287644;54;1143012;-77
2024/02/26 18:51:39;;;;;;;37.90;20.07;;;;;;;10.43;100.00;99950.41;5233037;54;1142913;-80
2024/02/26 18:56:45;;;;;;;45.13;22.43;;;;;;;10.40;100.00;99957.28;5213795;55;1142916;-81
2024/02/26 19:01:52;;;;;;;40.77;20.87;;;;;;;10.37;100.00;99961.53;5215793;54;1142929;-76
2024/02/26 19:06:57;;;;;;;38.87;20.13;;;;;;;10.33;100.00;99965.39;5265737;54;1142950;-78
2024/02/26 19:12:03;;;;;;;33.50;18.97;;;;;;;10.34;100.00;99975.84;5149783;55;1142711;-82
2024/02/26 19:17:09;;;;;;;47.17;23.40;;;;;;;10.35;100.00;99982.80;5100285;56;1142991;-80
2024/02/26 19:22:15;;;;;;;39.90;20.67;;;;;;;10.37;100.00;99990.61;5164247;55;1142774;-82
2024/02/26 19:27:20;;;;;;;43.93;23.53;;;;;;;10.36;100.00;99995.54;5096854;56;1142879;-79
2024/02/26 19:32:26;;;;;;;82.70;43.23;;;;;;;10.33;100.00;99990.51;5115493;56;1142776;-83
2024/02/26 19:37:34;;;;;;;53.13;25.23;;;;;;;10.36;100.00;100011.40;5146980;55;1142660;-82
2024/02/26 19:42:39;;;;;;;401.20;132.40;;;;;;;10.27;100.00;100003.75;5188447;55;1144920;-83
2024/02/26 19:47:46;;;;;;;185.53;74.23;;;;;;;10.19;100.00;100001.77;5206027;55;1149269;-80
2024/02/26 19:52:52;;;;;;;114.32;50.03;;;;;;;10.20;100.00;99996.84;5128370;55;1147356;-77
2024/02/26 19:57:58;;;;;;;71.87;37.20;;;;;;;10.18;100.00;100000.54;5129390;55;1144992;-82
2024/02/26 20:03:06;;;;;;;49.37;25.07;;;;;;;10.21;100.00;100000.32;5127222;56;1145167;-79
2024/02/26 20:08:12;;;;;;;43.50;26.00;;;;;;;10.23;100.00;99995.75;5099039;56;1145116;-81
2024/02/26 20:13:21;;;;;;;40.13;21.63;;;;;;;10.20;100.00;100002.13;5104772;56;1142534;-81
2024/02/26 20:18:25;;;;;;;38.98;21.65;;;;;;;10.14;100.00;100000.44;5099173;55;1145135;-82
2024/02/26 20:23:31;;;;;;;47.80;23.77;;;;;;;10.05;100.00;100004.70;5127966;56;1144643;-81
2024/02/26 20:28:37;;;;;;;50.80;25.55;;;;;;;10.03;100.00;100010.59;5118929;55;1144909;-82
2024/02/26 20:33:43;;;;;;;44.00;22.67;;;;;;;9.99;100.00;100010.96;5100417;55;1144826;-80
2024/02/26 20:38:50;;;;;;;54.38;27.75;;;;;;;9.95;100.00;100009.05;5125230;56;1142716;-81
2024/02/26 20:43:55;;;;;;;54.93;29.30;;;;;;;9.93;100.00;99999.61;5111259;55;1143070;-81
2024/02/26 20:49:02;;;;;;;65.87;32.77;;;;;;;9.96;100.00;100002.80;5113758;55;1140853;-81
2024/02/26 20:54:13;;;;;;;42.07;24.57;;;;;;;9.91;100.00;100004.17;5130885;55;1142678;-81
2024/02/26 20:59:15;;;;;;;38.30;22.80;;;;;;;9.88;100.00;100006.09;5105452;55;1142578;-81
2024/02/26 21:04:21;;;;;;;49.87;25.40;;;;;;;9.83;100.00;100002.99;5161775;55;1142754;-82
2024/02/26 21:09:28;;;;;;;47.95;25.23;;;;;;;9.79;100.00;99996.76;5151389;55;1142824;-81
2024/02/26 21:14:34;;;;;;;40.53;20.90;;;;;;;9.78;100.00;99999.04;5172179;55;1140900;-81
2024/02/26 21:19:39;;;;;;;33.95;18.85;;;;;;;9.80;100.00;99999.76;5221732;54;1140911;-81
2024/02/26 21:24:45;;;;;;;27.13;17.00;;;;;;;9.80;100.00;100006.36;5221489;54;1141020;-81
2024/02/26 21:29:51;;;;;;;30.88;17.48;;;;;;;9.73;100.00;100008.69;5242262;54;1143046;-81
2024/02/26 21:34:57;;;;;;;30.47;17.00;;;;;;;9.67;100.00;100013.13;5220178;55;1142844;-81
2024/02/26 21:40:04;;;;;;;29.77;16.50;;;;;;;9.59;100.00;100014.73;5221253;54;1142854;-81
2024/02/26 21:45:11;;;;;;;24.47;15.77;;;;;;;9.58;100.00;100025.78;5242152;54;1142704;-81
2024/02/26 21:50:20;;;;;;;28.90;16.27;;;;;;;9.61;100.00;100031.30;5218894;54;1202384;-80
2024/02/26 21:55:28;;;;;;;21.13;13.33;;;;;;;9.61;100.00;100032.62;5166620;55;1142839;-80
2024/02/26 22:00:34;;;;;;;22.93;14.33;;;;;;;9.63;100.00;100029.34;5137595;55;1142774;-80
2024/02/26 22:05:41;;;;;;;24.03;16.30;;;;;;;9.72;100.00;100031.25;5211488;54;1142698;-80
2024/02/26 22:10:48;;;;;;;33.55;20.65;;;;;;;9.72;100.00;100044.45;5088996;55;1142845;-81
2024/02/26 22:15:53;;;;;;;24.87;14.93;;;;;;;9.73;100.00;100043.02;5193380;55;1143136;-81
2024/02/26 22:20:59;;;;;;;23.13;14.33;;;;;;;9.77;100.00;100037.01;5211235;55;1143195;-82
2024/02/26 22:26:05;;;;;;;27.67;16.32;;;;;;;9.80;100.00;100036.73;5186574;55;1142954;-81
2024/02/26 22:31:11;;;;;;;30.63;20.33;;;;;;;9.71;100.00;100031.73;5198191;55;1142734;-81
2024/02/26 22:36:17;;;;;;;33.58;20.92;;;;;;;9.63;100.00;100039.42;5228725;55;1142656;-81
2024/02/26 22:41:24;;;;;;;41.23;20.93;;;;;;;9.57;100.00;100044.38;5196337;55;1142991;-81
2024/02/26 22:46:29;;;;;;;41.17;21.80;;;;;;;9.50;100.00;100046.66;5215200;55;1143011;-81